Time;durP1;ratioP1;P1;durP2;ratioP2;P2;SDS_P1;SDS_P2;PMS_P1;PMS_P2;Temp;Humidity;BMP_temperature;BMP_pressure;BME280_temperature;BME280_humidity;BME280_pressure;Samples;Min_cycle;Max_cycle;Signal;HPM_P1;HPM_P2
2022/08/19 00:00:43;;;;;;;24.38;11.88;;;;;;;;;;5070506;28;20032;-72
2022/08/19 00:03:09;;;;;;;26.55;13.85;;;;;;;;;;5070282;28;20028;-72
2022/08/19 00:05:35;;;;;;;23.55;14.20;;;;;;;;;;5070113;28;20027;-72
2022/08/19 00:08:01;;;;;;;29.42;16.85;;;;;;;;;;5070536;28;20024;-72
2022/08/19 00:10:27;;;;;;;25.65;16.15;;;;;;;;;;5070145;28;20021;-73
2022/08/19 00:12:53;;;;;;;34.78;19.23;;;;;;;;;;5070186;28;20384;-72
2022/08/19 00:15:20;;;;;;;30.15;18.50;;;;;;;;;;5071371;28;20036;-73
2022/08/19 00:17:46;;;;;;;25.17;17.33;;;;;;;;;;5070644;28;20051;-72
2022/08/19 00:20:16;;;;;;;32.97;18.63;;;;;;;;;;5070110;28;20020;-72
2022/08/19 00:22:42;;;;;;;29.75;18.63;;;;;;;;;;5070022;28;20104;-72
2022/08/19 00:25:08;;;;;;;35.88;19.13;;;;;;;;;;5070101;28;20094;-72
2022/08/19 00:27:34;;;;;;;32.85;19.52;;;;;;;;;;5071524;28;20027;-72
2022/08/19 00:30:03;;;;;;;41.55;22.77;;;;;;;;;;5074249;28;20339;-73
2022/08/19 00:32:29;;;;;;;33.90;20.13;;;;;;;;;;5073658;28;20078;-73
2022/08/19 00:34:55;;;;;;;34.55;19.55;;;;;;;;;;5073727;28;20137;-73
2022/08/19 00:37:26;;;;;;;32.50;17.92;;;;;;;;;;5073495;28;20031;-72
2022/08/19 00:39:52;;;;;;;31.48;19.58;;;;;;;;;;5076731;28;20036;-73
2022/08/19 00:42:19;;;;;;;34.08;19.00;;;;;;;;;;5075564;28;20032;-73
2022/08/19 00:44:45;;;;;;;31.88;18.23;;;;;;;;;;5073439;28;20029;-74
2022/08/19 00:47:11;;;;;;;35.42;18.88;;;;;;;;;;5073533;28;20019;-73
2022/08/19 00:49:41;;;;;;;31.90;18.83;;;;;;;;;;5073330;28;20428;-73
2022/08/19 00:52:08;;;;;;;34.42;17.85;;;;;;;;;;5073112;28;20039;-73
2022/08/19 00:54:36;;;;;;;31.65;18.40;;;;;;;;;;5073317;28;20052;-72
2022/08/19 00:57:04;;;;;;;38.38;19.52;;;;;;;;;;5073608;28;20299;-72
2022/08/19 00:59:30;;;;;;;32.45;19.52;;;;;;;;;;5073248;28;20025;-72
2022/08/19 01:01:56;;;;;;;34.40;18.42;;;;;;;;;;5073140;28;20077;-72
2022/08/19 01:04:22;;;;;;;36.88;19.23;;;;;;;;;;5073488;28;20029;-72
2022/08/19 01:06:48;;;;;;;37.83;19.13;;;;;;;;;;5072933;28;20455;-72
2022/08/19 01:09:14;;;;;;;48.17;22.27;;;;;;;;;;5073172;28;20513;-72
2022/08/19 01:11:42;;;;;;;43.30;23.60;;;;;;;;;;5073495;28;20078;-72
2022/08/19 01:14:08;;;;;;;60.47;27.88;;;;;;;;;;5074131;28;20039;-72
2022/08/19 01:16:35;;;;;;;50.58;25.60;;;;;;;;;;5073322;28;20382;-72
2022/08/19 01:19:02;;;;;;;51.58;25.17;;;;;;;;;;5072717;28;20021;-72
2022/08/19 01:21:32;;;;;;;48.33;24.77;;;;;;;;;;5072776;28;20028;-71
2022/08/19 01:23:59;;;;;;;49.30;25.42;;;;;;;;;;5073091;28;20032;-71
2022/08/19 01:26:25;;;;;;;43.70;25.50;;;;;;;;;;5073119;28;20165;-72
2022/08/19 01:28:52;;;;;;;48.65;25.50;;;;;;;;;;5072807;28;20496;-72
2022/08/19 01:31:22;;;;;;;47.97;24.65;;;;;;;;;;5072621;28;20496;-72
2022/08/19 01:33:49;;;;;;;47.17;23.35;;;;;;;;;;5072682;28;20536;-71
2022/08/19 01:36:17;;;;;;;48.33;24.77;;;;;;;;;;5071190;28;20127;-71
2022/08/19 01:38:46;;;;;;;55.90;27.48;;;;;;;;;;5071571;28;20040;-72
2022/08/19 01:41:12;;;;;;;49.08;24.88;;;;;;;;;;5073852;28;20028;-70
2022/08/19 01:43:38;;;;;;;53.17;25.10;;;;;;;;;;5072930;28;20397;-71
2022/08/19 01:46:04;;;;;;;53.30;26.13;;;;;;;;;;5072175;28;20059;-71
2022/08/19 01:48:35;;;;;;;54.13;25.25;;;;;;;;;;5072297;28;20485;-72
2022/08/19 01:51:01;;;;;;;53.58;26.02;;;;;;;;;;5072076;28;20035;-71
2022/08/19 01:53:27;;;;;;;59.78;26.45;;;;;;;;;;5073536;28;20072;-71
2022/08/19 01:55:53;;;;;;;49.88;23.45;;;;;;;;;;5070817;28;20562;-71
2022/08/19 01:58:21;;;;;;;49.90;23.42;;;;;;;;;;5071807;28;20378;-72
2022/08/19 02:00:47;;;;;;;54.47;24.83;;;;;;;;;;5072000;28;20355;-72
2022/08/19 02:03:13;;;;;;;54.83;24.35;;;;;;;;;;5071759;28;20021;-71
2022/08/19 02:05:40;;;;;;;51.95;24.73;;;;;;;;;;5071583;28;20021;-71
2022/08/19 02:08:07;;;;;;;54.92;26.52;;;;;;;;;;5071782;28;20021;-72
2022/08/19 02:10:33;;;;;;;60.08;24.50;;;;;;;;;;5071779;28;20512;-71
2022/08/19 02:12:59;;;;;;;52.58;23.90;;;;;;;;;;5071709;28;20033;-72
2022/08/19 02:15:25;;;;;;;51.25;23.85;;;;;;;;;;5072119;28;20082;-72
2022/08/19 02:17:52;;;;;;;65.93;27.27;;;;;;;;;;5074112;28;20040;-72
2022/08/19 02:20:18;;;;;;;74.40;28.52;;;;;;;;;;5071973;28;20081;-71
2022/08/19 02:22:44;;;;;;;73.40;27.60;;;;;;;;;;5071583;28;20428;-71
2022/08/19 02:25:13;;;;;;;75.57;30.08;;;;;;;;;;5071554;28;20078;-71
2022/08/19 02:27:40;;;;;;;77.43;28.17;;;;;;;;;;5072826;28;20095;-71
2022/08/19 02:30:06;;;;;;;75.80;28.45;;;;;;;;;;5071562;28;20021;-71
2022/08/19 02:32:33;;;;;;;76.40;30.23;;;;;;;;;;5071991;28;20060;-72
2022/08/19 02:34:59;;;;;;;85.63;32.95;;;;;;;;;;5072741;28;20024;-73
2022/08/19 02:40:09;;;;;;;78.93;29.38;;;;;;;;;;5071101;28;20046;-72
2022/08/19 02:42:35;;;;;;;84.72;32.72;;;;;;;;;;5071076;28;20032;-72
2022/08/19 02:45:01;;;;;;;79.68;33.22;;;;;;;;;;5071719;28;20017;-73
2022/08/19 02:47:27;;;;;;;77.35;30.88;;;;;;;;;;5071089;28;20103;-75
2022/08/19 02:49:53;;;;;;;89.45;32.10;;;;;;;;;;5071032;28;20025;-74
2022/08/19 02:52:20;;;;;;;77.07;31.55;;;;;;;;;;5071266;28;20036;-74
2022/08/19 02:54:46;;;;;;;74.50;30.60;;;;;;;;;;5071547;28;20367;-73
2022/08/19 02:57:12;;;;;;;72.38;30.35;;;;;;;;;;5071729;28;20040;-73
2022/08/19 02:59:38;;;;;;;68.40;27.83;;;;;;;;;;5073346;28;20035;-73
2022/08/19 03:02:04;;;;;;;73.30;28.98;;;;;;;;;;5069832;28;20028;-72
2022/08/19 03:04:30;;;;;;;73.38;29.10;;;;;;;;;;5071766;28;20066;-74
2022/08/19 03:06:56;;;;;;;72.07;27.52;;;;;;;;;;5071073;28;20025;-72
2022/08/19 03:09:22;;;;;;;69.95;27.67;;;;;;;;;;5071133;28;20020;-72
2022/08/19 03:11:48;;;;;;;69.07;28.70;;;;;;;;;;5070840;28;20032;-72
2022/08/19 03:14:14;;;;;;;67.68;27.60;;;;;;;;;;5070801;28;20039;-72
2022/08/19 03:16:45;;;;;;;65.55;26.38;;;;;;;;;;5071349;28;20103;-74
2022/08/19 03:19:11;;;;;;;69.72;27.95;;;;;;;;;;5071259;28;20027;-73
2022/08/19 03:21:37;;;;;;;67.55;28.45;;;;;;;;;;5070979;28;20067;-73
2022/08/19 03:24:05;;;;;;;59.85;25.38;;;;;;;;;;5072709;28;20383;-74
2022/08/19 03:26:31;;;;;;;67.68;28.50;;;;;;;;;;5076557;28;20443;-73
2022/08/19 03:28:58;;;;;;;50.83;23.13;;;;;;;;;;5076277;28;20031;-74
2022/08/19 03:31:25;;;;;;;60.38;26.10;;;;;;;;;;5074916;28;20021;-74
2022/08/19 03:33:51;;;;;;;63.17;26.33;;;;;;;;;;5074202;28;20091;-73
2022/08/19 03:36:20;;;;;;;58.72;25.17;;;;;;;;;;5073436;28;20473;-72
2022/08/19 03:38:48;;;;;;;60.75;27.08;;;;;;;;;;5072464;28;20532;-73
2022/08/19 03:41:18;;;;;;;53.95;23.10;;;;;;;;;;5072834;28;20074;-74
2022/08/19 03:43:46;;;;;;;51.47;23.45;;;;;;;;;;5072014;28;20493;-74
2022/08/19 03:46:14;;;;;;;52.67;23.80;;;;;;;;;;5073832;28;20100;-74
2022/08/19 03:48:41;;;;;;;53.90;24.67;;;;;;;;;;5071344;28;20025;-73
2022/08/19 03:51:07;;;;;;;63.08;26.10;;;;;;;;;;5071818;28;20028;-74
2022/08/19 03:53:34;;;;;;;58.83;23.80;;;;;;;;;;5072331;28;20108;-73
2022/08/19 03:56:00;;;;;;;63.83;25.40;;;;;;;;;;5074923;28;20103;-74
2022/08/19 03:58:28;;;;;;;60.05;24.52;;;;;;;;;;5072827;28;20032;-74
2022/08/19 04:00:55;;;;;;;64.30;23.63;;;;;;;;;;5074757;28;20024;-73
2022/08/19 04:03:21;;;;;;;63.80;27.52;;;;;;;;;;5075551;28;20025;-74
2022/08/19 04:05:47;;;;;;;58.40;27.10;;;;;;;;;;5076099;28;20032;-74
2022/08/19 04:08:15;;;;;;;71.70;28.98;;;;;;;;;;5075476;28;20021;-73
2022/08/19 04:10:41;;;;;;;63.38;29.55;;;;;;;;;;5076148;28;20020;-73
2022/08/19 04:13:08;;;;;;;72.07;29.13;;;;;;;;;;5076544;28;20080;-73
2022/08/19 04:15:41;;;;;;;68.78;28.10;;;;;;;;;;5074043;28;20086;-74
2022/08/19 04:18:07;;;;;;;66.20;29.58;;;;;;;;;;5075719;28;20021;-74
2022/08/19 04:20:33;;;;;;;72.88;32.85;;;;;;;;;;5076037;28;20025;-74
2022/08/19 04:22:59;;;;;;;84.80;35.53;;;;;;;;;;5074883;28;20039;-74
2022/08/19 04:25:25;;;;;;;82.93;34.33;;;;;;;;;;5075140;28;20021;-73
2022/08/19 04:27:51;;;;;;;77.60;31.65;;;;;;;;;;5074972;28;20047;-73
2022/08/19 04:30:17;;;;;;;86.80;36.47;;;;;;;;;;5081732;28;20381;-75
2022/08/19 04:32:43;;;;;;;109.20;40.22;;;;;;;;;;5081134;28;20099;-75
2022/08/19 04:35:09;;;;;;;92.00;36.92;;;;;;;;;;5079544;28;20029;-74
2022/08/19 04:37:35;;;;;;;104.63;43.38;;;;;;;;;;5081206;28;20036;-75
2022/08/19 04:42:46;;;;;;;98.90;41.97;;;;;;;;;;5074620;28;20031;-74
2022/08/19 04:45:13;;;;;;;105.18;39.85;;;;;;;;;;5074524;28;20100;-73
2022/08/19 04:47:40;;;;;;;119.15;43.45;;;;;;;;;;5076059;28;20068;-73
2022/08/19 04:50:07;;;;;;;112.40;42.22;;;;;;;;;;5075251;28;20025;-73
2022/08/19 04:52:33;;;;;;;111.35;43.85;;;;;;;;;;5076898;28;20103;-73
2022/08/19 04:54:59;;;;;;;111.57;42.70;;;;;;;;;;5075706;28;20477;-72
2022/08/19 04:57:26;;;;;;;119.32;43.65;;;;;;;;;;5072852;28;20071;-73
2022/08/19 04:59:56;;;;;;;104.15;42.25;;;;;;;;;;5072814;28;20051;-72
2022/08/19 05:02:25;;;;;;;102.00;40.92;;;;;;;;;;5075893;28;20032;-74
2022/08/19 05:04:52;;;;;;;105.97;41.00;;;;;;;;;;5074414;28;20059;-74
2022/08/19 05:07:18;;;;;;;92.18;38.38;;;;;;;;;;5075121;28;20518;-74
2022/08/19 05:09:44;;;;;;;104.57;41.72;;;;;;;;;;5076955;28;20108;-74
2022/08/19 05:12:10;;;;;;;96.75;40.30;;;;;;;;;;5074218;28;20048;-72
2022/08/19 05:14:36;;;;;;;112.15;44.47;;;;;;;;;;5073225;28;20040;-72
2022/08/19 05:17:02;;;;;;;103.97;39.47;;;;;;;;;;5074308;28;20105;-74
2022/08/19 05:24:57;;;;;;;101.63;43.30;;;;;;;;;;5074174;28;20048;-73
2022/08/19 05:27:23;;;;;;;102.88;42.85;;;;;;;;;;5074717;28;20461;-73
2022/08/19 05:29:49;;;;;;;102.45;46.03;;;;;;;;;;5079271;28;20395;-74
2022/08/19 05:32:15;;;;;;;99.10;45.67;;;;;;;;;;5078183;28;20029;-72
2022/08/19 05:34:41;;;;;;;101.38;45.35;;;;;;;;;;5074908;28;20104;-73
2022/08/19 05:37:08;;;;;;;97.32;45.72;;;;;;;;;;5074311;28;20036;-73
2022/08/19 05:39:35;;;;;;;94.57;47.38;;;;;;;;;;5072967;28;20355;-73
2022/08/19 05:42:03;;;;;;;107.55;48.35;;;;;;;;;;5073986;28;20028;-73
2022/08/19 05:44:31;;;;;;;107.38;46.22;;;;;;;;;;5074648;28;20107;-73
2022/08/19 05:46:57;;;;;;;95.45;44.15;;;;;;;;;;5076474;28;20021;-72
2022/08/19 05:49:25;;;;;;;92.65;44.70;;;;;;;;;;5083481;28;20047;-74
2022/08/19 05:51:51;;;;;;;89.55;43.63;;;;;;;;;;5076829;28;20100;-73
2022/08/19 05:54:17;;;;;;;96.45;43.38;;;;;;;;;;5074934;28;20040;-74
2022/08/19 05:56:43;;;;;;;105.82;46.38;;;;;;;;;;5076216;28;20024;-73
2022/08/19 05:59:11;;;;;;;96.43;45.20;;;;;;;;;;5074197;28;20257;-74
2022/08/19 06:01:40;;;;;;;98.18;46.63;;;;;;;;;;5074367;28;20036;-74
2022/08/19 06:04:07;;;;;;;103.38;46.40;;;;;;;;;;5076341;28;20021;-76
2022/08/19 06:06:34;;;;;;;111.47;48.25;;;;;;;;;;5075970;28;20046;-73
2022/08/19 06:09:01;;;;;;;106.55;46.95;;;;;;;;;;5074219;28;20528;-73
2022/08/19 06:11:41;;;;;;;103.18;46.35;;;;;;;;;;5073008;28;20017;-74
2022/08/19 06:14:11;;;;;;;100.38;47.00;;;;;;;;;;5072926;28;20024;-72
2022/08/19 06:16:38;;;;;;;98.45;43.28;;;;;;;;;;5073226;28;20100;-72
2022/08/19 06:19:06;;;;;;;103.00;47.15;;;;;;;;;;5074881;28;20024;-72
2022/08/19 06:21:32;;;;;;;110.25;50.42;;;;;;;;;;5075178;28;20017;-73
2022/08/19 06:23:58;;;;;;;107.57;46.45;;;;;;;;;;5073396;28;20020;-72
2022/08/19 06:26:24;;;;;;;102.90;46.33;;;;;;;;;;5072710;28;20389;-73
2022/08/19 06:28:51;;;;;;;101.80;45.33;;;;;;;;;;5073793;28;20432;-73
2022/08/19 06:31:20;;;;;;;99.00;45.40;;;;;;;;;;5075011;28;20107;-72
2022/08/19 06:33:46;;;;;;;93.00;44.30;;;;;;;;;;5076147;28;20123;-73
2022/08/19 06:36:18;;;;;;;87.95;43.33;;;;;;;;;;5077176;28;20377;-72
2022/08/19 06:38:44;;;;;;;100.82;44.25;;;;;;;;;;5075462;28;20032;-73
2022/08/19 06:41:11;;;;;;;97.38;46.20;;;;;;;;;;5074162;28;20035;-72
2022/08/19 06:43:37;;;;;;;81.20;38.72;;;;;;;;;;5073970;28;20025;-72
2022/08/19 06:46:03;;;;;;;85.20;41.95;;;;;;;;;;5072375;28;20027;-72
2022/08/19 06:48:29;;;;;;;92.00;41.35;;;;;;;;;;5075392;28;20393;-73
2022/08/19 06:50:55;;;;;;;91.13;41.20;;;;;;;;;;5074267;28;20029;-72
2022/08/19 06:53:21;;;;;;;72.28;37.53;;;;;;;;;;5075615;28;20024;-74
2022/08/19 06:55:47;;;;;;;80.03;37.35;;;;;;;;;;5074785;28;20028;-71
2022/08/19 06:58:14;;;;;;;82.53;41.10;;;;;;;;;;5081833;28;20453;-72
2022/08/19 07:00:40;;;;;;;69.60;34.72;;;;;;;;;;5072788;28;20111;-71
2022/08/19 07:03:06;;;;;;;62.28;31.73;;;;;;;;;;5072785;28;20120;-71
2022/08/19 07:05:32;;;;;;;73.93;37.05;;;;;;;;;;5072764;28;20493;-72
2022/08/19 07:07:58;;;;;;;60.22;33.13;;;;;;;;;;5073049;28;20021;-73
2022/08/19 07:10:25;;;;;;;68.85;34.28;;;;;;;;;;5072425;28;20134;-72
2022/08/19 07:12:51;;;;;;;61.85;32.00;;;;;;;;;;5075357;28;20094;-71
2022/08/19 07:15:17;;;;;;;68.90;35.28;;;;;;;;;;5075300;28;20112;-72
2022/08/19 07:17:43;;;;;;;76.70;37.10;;;;;;;;;;5072760;28;20064;-72
2022/08/19 07:20:09;;;;;;;53.40;28.55;;;;;;;;;;5073308;28;20024;-73
2022/08/19 07:22:36;;;;;;;64.00;35.08;;;;;;;;;;5080715;28;20055;-77
2022/08/19 07:25:03;;;;;;;57.28;29.88;;;;;;;;;;5079026;28;20074;-72
2022/08/19 07:27:29;;;;;;;65.88;33.80;;;;;;;;;;5079142;28;20027;-72
2022/08/19 07:29:55;;;;;;;78.22;36.67;;;;;;;;;;5072815;28;20016;-72
2022/08/19 07:32:21;;;;;;;62.92;33.17;;;;;;;;;;5072524;28;20024;-72
2022/08/19 07:34:47;;;;;;;86.55;42.65;;;;;;;;;;5071411;28;20513;-72
2022/08/19 07:37:13;;;;;;;64.25;34.40;;;;;;;;;;5073258;28;20029;-73
2022/08/19 07:39:39;;;;;;;71.50;37.30;;;;;;;;;;5077035;28;20036;-71
2022/08/19 07:42:07;;;;;;;73.70;37.78;;;;;;;;;;5079595;28;20025;-71
2022/08/19 07:44:34;;;;;;;79.13;41.92;;;;;;;;;;5083220;28;20078;-71
2022/08/19 07:47:01;;;;;;;75.30;39.42;;;;;;;;;;5083255;28;20074;-72
2022/08/19 07:49:27;;;;;;;83.10;43.90;;;;;;;;;;5078724;28;20052;-72
2022/08/19 07:51:56;;;;;;;84.70;43.25;;;;;;;;;;5076271;28;20040;-72
2022/08/19 07:54:23;;;;;;;68.72;37.50;;;;;;;;;;5075078;28;20051;-72
2022/08/19 07:56:52;;;;;;;72.15;38.22;;;;;;;;;;5074704;28;20064;-72
2022/08/19 07:59:20;;;;;;;68.57;36.78;;;;;;;;;;5076163;28;20020;-72
2022/08/19 08:01:46;;;;;;;117.90;58.15;;;;;;;;;;5075041;28;20025;-73
2022/08/19 08:09:43;;;;;;;74.70;41.10;;;;;;;;;;5055457;28;20380;-71
2022/08/19 08:12:16;;;;;;;71.22;39.60;;;;;;;;;;5056332;28;20260;-72
2022/08/19 08:14:45;;;;;;;64.30;34.70;;;;;;;;;;5055068;28;20032;-72
2022/08/19 08:17:12;;;;;;;70.75;36.67;;;;;;;;;;5054564;28;20099;-72
2022/08/19 08:19:40;;;;;;;66.60;37.00;;;;;;;;;;5055014;28;20024;-72
2022/08/19 08:22:06;;;;;;;61.08;34.05;;;;;;;;;;5055966;28;20021;-72
2022/08/19 08:24:35;;;;;;;58.28;32.17;;;;;;;;;;5057978;28;20025;-72
2022/08/19 08:27:01;;;;;;;47.22;26.38;;;;;;;;;;5063288;28;20045;-72
2022/08/19 08:29:29;;;;;;;48.88;24.77;;;;;;;;;;5059422;28;20032;-72
2022/08/19 08:31:55;;;;;;;42.50;23.75;;;;;;;;;;5055859;28;20100;-73
2022/08/19 08:34:21;;;;;;;47.90;24.95;;;;;;;;;;5055977;28;20032;-73
2022/08/19 08:36:47;;;;;;;46.88;24.75;;;;;;;;;;5055399;28;20029;-72
2022/08/19 08:39:14;;;;;;;41.88;22.92;;;;;;;;;;5054448;28;20033;-71
2022/08/19 08:41:47;;;;;;;42.53;23.33;;;;;;;;;;5054473;28;20025;-72
2022/08/19 08:44:18;;;;;;;39.85;21.63;;;;;;;;;;5055753;28;20025;-73
2022/08/19 08:46:48;;;;;;;67.30;24.13;;;;;;;;;;5058873;28;20123;-72
2022/08/19 08:49:33;;;;;;;36.00;18.40;;;;;;;;;;5057707;28;20025;-74
2022/08/19 08:52:00;;;;;;;28.67;16.63;;;;;;;;;;5054503;28;20159;-72
2022/08/19 08:54:29;;;;;;;25.58;15.20;;;;;;;;;;5054815;28;20032;-71
2022/08/19 08:56:55;;;;;;;35.22;17.00;;;;;;;;;;5053699;28;20053;-73
2022/08/19 08:59:32;;;;;;;28.23;17.63;;;;;;;;;;5053858;28;20025;-74
2022/08/19 09:01:58;;;;;;;36.35;18.77;;;;;;;;;;5060262;28;20029;-73
2022/08/19 09:04:24;;;;;;;35.35;17.58;;;;;;;;;;5059597;28;20029;-71
2022/08/19 09:06:50;;;;;;;25.83;15.55;;;;;;;;;;5054095;28;20378;-75
2022/08/19 09:09:31;;;;;;;30.05;15.35;;;;;;;;;;5060442;28;20021;-73
2022/08/19 09:12:06;;;;;;;25.92;14.57;;;;;;;;;;5054310;28;20059;-75
2022/08/19 09:14:32;;;;;;;;;;;;;;;;;;5054234;28;20029;-73
2022/08/19 09:16:59;;;;;;;21.58;11.90;;;;;;;;;;5053606;28;19912;-73
2022/08/19 09:19:25;;;;;;;26.40;13.48;;;;;;;;;;5053541;28;20440;-76
2022/08/19 09:21:51;;;;;;;23.10;12.85;;;;;;;;;;5053551;28;20455;-76
2022/08/19 09:24:17;;;;;;;19.02;11.73;;;;;;;;;;5054180;28;20055;-75
2022/08/19 09:26:43;;;;;;;26.20;12.27;;;;;;;;;;5053734;28;20037;-75
2022/08/19 09:29:10;;;;;;;26.77;12.50;;;;;;;;;;5053859;28;20060;-71
2022/08/19 09:31:36;;;;;;;20.95;11.95;;;;;;;;;;5053589;28;20028;-72
2022/08/19 09:34:04;;;;;;;30.70;13.20;;;;;;;;;;5053488;28;20096;-72
2022/08/19 09:36:32;;;;;;;22.13;12.15;;;;;;;;;;5053697;28;20031;-72
2022/08/19 09:38:59;;;;;;;26.98;12.20;;;;;;;;;;5053370;28;20129;-73
2022/08/19 09:41:26;;;;;;;31.40;13.35;;;;;;;;;;5056988;28;20032;-74
2022/08/19 09:43:55;;;;;;;24.15;12.05;;;;;;;;;;5053501;28;20029;-73
2022/08/19 09:46:21;;;;;;;25.55;13.07;;;;;;;;;;5056741;28;20067;-72
2022/08/19 09:48:48;;;;;;;29.65;16.25;;;;;;;;;;5062588;28;20028;-73
2022/08/19 09:51:15;;;;;;;29.70;15.85;;;;;;;;;;5061119;28;20196;-72
2022/08/19 09:53:42;;;;;;;43.05;18.23;;;;;;;;;;5053823;28;20040;-72
2022/08/19 09:56:08;;;;;;;31.52;15.63;;;;;;;;;;5052594;28;20025;-72
2022/08/19 09:58:35;;;;;;;25.77;14.77;;;;;;;;;;5069420;28;20036;-73
2022/08/19 10:01:02;;;;;;;31.15;16.85;;;;;;;;;;5052990;28;20021;-73
2022/08/19 10:03:28;;;;;;;34.58;17.02;;;;;;;;;;5053034;28;20025;-73
2022/08/19 10:05:55;;;;;;;37.60;20.02;;;;;;;;;;5052943;28;20025;-73
2022/08/19 10:08:23;;;;;;;33.38;17.75;;;;;;;;;;5054284;28;20033;-73
2022/08/19 10:10:50;;;;;;;39.75;19.88;;;;;;;;;;5057213;28;20025;-73
2022/08/19 10:13:21;;;;;;;33.78;18.52;;;;;;;;;;5060170;28;20053;-72
2022/08/19 10:15:50;;;;;;;33.05;17.73;;;;;;;;;;5056751;28;20025;-72
2022/08/19 10:18:18;;;;;;;38.72;19.23;;;;;;;;;;5053554;28;20021;-73
2022/08/19 10:20:45;;;;;;;37.17;20.65;;;;;;;;;;5053998;28;20029;-71
2022/08/19 10:23:11;;;;;;;35.70;18.95;;;;;;;;;;5057093;28;20021;-71
2022/08/19 10:25:37;;;;;;;37.38;19.33;;;;;;;;;;5057730;28;20125;-73
2022/08/19 10:28:05;;;;;;;40.72;20.85;;;;;;;;;;5053574;28;20029;-72
2022/08/19 10:30:31;;;;;;;48.58;22.52;;;;;;;;;;5054496;28;20020;-73
2022/08/19 10:32:57;;;;;;;43.03;21.95;;;;;;;;;;5053871;28;20485;-72
2022/08/19 10:35:27;;;;;;;43.40;22.55;;;;;;;;;;5057055;28;20039;-73
2022/08/19 10:37:53;;;;;;;43.80;22.58;;;;;;;;;;5055209;28;20029;-72
2022/08/19 10:40:19;;;;;;;39.83;20.60;;;;;;;;;;5054333;28;20350;-72
2022/08/19 10:42:45;;;;;;;41.00;19.90;;;;;;;;;;5052560;28;20503;-71
2022/08/19 10:45:11;;;;;;;43.42;21.80;;;;;;;;;;5052674;28;20025;-71
2022/08/19 10:47:37;;;;;;;41.13;20.95;;;;;;;;;;5053165;28;20100;-72
2022/08/19 10:52:49;;;;;;;34.78;18.00;;;;;;;;;;5053913;28;20040;-72
2022/08/19 10:58:00;;;;;;;35.30;18.13;;;;;;;;;;5052373;28;20182;-72
2022/08/19 11:00:26;;;;;;;34.03;17.35;;;;;;;;;;5052207;28;20024;-73
2022/08/19 11:02:52;;;;;;;36.55;16.15;;;;;;;;;;5053117;28;20535;-72
2022/08/19 11:05:19;;;;;;;38.15;19.08;;;;;;;;;;5051743;28;20071;-72
2022/08/19 11:07:45;;;;;;;33.15;16.67;;;;;;;;;;5051651;28;20060;-72
2022/08/19 11:10:13;;;;;;;31.08;16.15;;;;;;;;;;5052898;28;20078;-71
2022/08/19 11:12:39;;;;;;;32.85;16.98;;;;;;;;;;5052100;28;20059;-71
2022/08/19 11:15:10;;;;;;;37.40;17.35;;;;;;;;;;5055809;28;20082;-74
2022/08/19 11:17:40;;;;;;;30.35;16.05;;;;;;;;;;5053822;28;20032;-71
2022/08/19 11:20:06;;;;;;;32.80;18.25;;;;;;;;;;5050939;28;20025;-71
2022/08/19 11:22:32;;;;;;;37.55;21.13;;;;;;;;;;5055848;28;20028;-71
2022/08/19 11:24:58;;;;;;;34.50;20.05;;;;;;;;;;5051701;28;20423;-73
2022/08/19 11:27:24;;;;;;;28.48;15.45;;;;;;;;;;5049732;28;20489;-73
2022/08/19 11:29:52;;;;;;;29.55;13.27;;;;;;;;;;5051798;28;20017;-72
2022/08/19 11:32:18;;;;;;;27.42;16.13;;;;;;;;;;5051245;28;20017;-71
2022/08/19 11:34:44;;;;;;;25.15;13.90;;;;;;;;;;5051483;28;20036;-72
2022/08/19 11:37:10;;;;;;;21.23;12.48;;;;;;;;;;5052993;28;20092;-72
2022/08/19 11:39:36;;;;;;;27.60;13.73;;;;;;;;;;5051166;28;20032;-73
2022/08/19 11:42:54;;;;;;;24.58;12.98;;;;;;;;;;5051606;28;20031;-73
2022/08/19 11:44:49;;;;;;;28.67;14.73;;;;;;;;;;5051690;28;20045;-73
2022/08/19 11:47:15;;;;;;;25.15;15.82;;;;;;;;;;5055251;28;20216;-72
2022/08/19 11:49:42;;;;;;;26.63;15.35;;;;;;;;;;5052843;28;20029;-73
2022/08/19 11:52:08;;;;;;;29.42;14.20;;;;;;;;;;5055474;28;20051;-73
2022/08/19 11:54:34;;;;;;;22.95;14.18;;;;;;;;;;5051303;28;20466;-73
2022/08/19 11:57:02;;;;;;;42.35;21.08;;;;;;;;;;5051585;28;20041;-72
2022/08/19 11:59:29;;;;;;;34.67;17.67;;;;;;;;;;5052528;28;20040;-73
2022/08/19 12:01:55;;;;;;;28.80;14.73;;;;;;;;;;5052548;28;20024;-71
2022/08/19 12:04:21;;;;;;;24.30;13.68;;;;;;;;;;5054670;28;20025;-72
2022/08/19 12:06:47;;;;;;;25.75;15.40;;;;;;;;;;5053650;28;20174;-73
2022/08/19 12:09:15;;;;;;;28.00;17.83;;;;;;;;;;5052605;28;20032;-72
2022/08/19 12:11:41;;;;;;;25.83;15.10;;;;;;;;;;5051943;28;20108;-71
2022/08/19 12:14:09;;;;;;;32.00;15.27;;;;;;;;;;5050710;28;20454;-71
2022/08/19 12:16:35;;;;;;;22.65;12.95;;;;;;;;;;5050390;28;20060;-70
2022/08/19 12:19:03;;;;;;;19.65;11.75;;;;;;;;;;5050586;28;20135;-71
2022/08/19 12:21:30;;;;;;;22.05;14.48;;;;;;;;;;5051504;28;20135;-72
2022/08/19 12:23:57;;;;;;;19.35;12.77;;;;;;;;;;5053878;28;20025;-72
2022/08/19 12:26:24;;;;;;;23.95;12.60;;;;;;;;;;5057232;28;20021;-72
2022/08/19 12:28:50;;;;;;;20.27;11.20;;;;;;;;;;5055408;28;20099;-76
2022/08/19 12:31:17;;;;;;;22.45;13.18;;;;;;;;;;5056266;28;20055;-72
2022/08/19 12:33:43;;;;;;;17.25;10.73;;;;;;;;;;5053809;28;20029;-72
2022/08/19 12:36:12;;;;;;;19.02;11.30;;;;;;;;;;5054535;28;20029;-73
2022/08/19 12:38:38;;;;;;;21.15;12.15;;;;;;;;;;5053946;28;20025;-72
2022/08/19 12:41:05;;;;;;;18.40;12.52;;;;;;;;;;5056256;28;20029;-70
2022/08/19 12:43:31;;;;;;;23.63;14.13;;;;;;;;;;5054543;28;20028;-78
2022/08/19 12:45:57;;;;;;;20.80;10.82;;;;;;;;;;5055419;28;20370;-73
2022/08/19 12:48:23;;;;;;;17.67;10.02;;;;;;;;;;5054682;28;20017;-74
2022/08/19 12:50:49;;;;;;;18.95;11.68;;;;;;;;;;5053964;28;20027;-74
2022/08/19 12:53:15;;;;;;;20.23;11.60;;;;;;;;;;5054788;28;20529;-74
2022/08/19 12:55:42;;;;;;;17.77;12.07;;;;;;;;;;5059769;28;20025;-76
2022/08/19 12:58:08;;;;;;;21.83;12.95;;;;;;;;;;5066240;28;20037;-74
2022/08/19 13:00:34;;;;;;;19.90;14.05;;;;;;;;;;5063475;28;20429;-75
2022/08/19 13:03:01;;;;;;;23.17;14.50;;;;;;;;;;5056067;28;20029;-72
2022/08/19 13:05:29;;;;;;;23.40;13.25;;;;;;;;;;5059408;28;20032;-79
2022/08/19 13:07:56;;;;;;;24.52;12.82;;;;;;;;;;5056271;28;20021;-76
2022/08/19 13:10:24;;;;;;;20.15;11.90;;;;;;;;;;5053895;28;20064;-73
2022/08/19 13:12:51;;;;;;;18.08;13.02;;;;;;;;;;5054851;28;20032;-75
2022/08/19 13:15:20;;;;;;;19.25;12.85;;;;;;;;;;5055416;28;20032;-74
2022/08/19 13:17:48;;;;;;;15.70;11.15;;;;;;;;;;5054056;28;20108;-76
2022/08/19 13:20:15;;;;;;;17.73;11.75;;;;;;;;;;5054733;28;20103;-73
2022/08/19 13:22:42;;;;;;;18.52;10.90;;;;;;;;;;5056005;28;20132;-73
2022/08/19 13:25:08;;;;;;;19.52;12.02;;;;;;;;;;5054609;28;20017;-72
2022/08/19 13:27:34;;;;;;;22.00;12.48;;;;;;;;;;5054476;28;20060;-72
2022/08/19 13:35:29;;;;;;;27.20;17.67;;;;;;;;;;5052154;28;20071;-73
2022/08/19 13:37:55;;;;;;;18.30;12.80;;;;;;;;;;5052660;28;20398;-72
2022/08/19 13:40:23;;;;;;;21.88;12.15;;;;;;;;;;5054195;28;20089;-72
2022/08/19 13:42:50;;;;;;;23.92;17.08;;;;;;;;;;5053991;28;20081;-72
2022/08/19 13:45:17;;;;;;;24.75;16.35;;;;;;;;;;5053617;28;20025;-71
2022/08/19 13:47:45;;;;;;;18.77;13.50;;;;;;;;;;5054006;28;20501;-75
2022/08/19 13:50:12;;;;;;;15.98;11.85;;;;;;;;;;5052975;28;20029;-74
2022/08/19 13:52:39;;;;;;;22.23;12.90;;;;;;;;;;5053172;28;20401;-71
2022/08/19 13:55:05;;;;;;;19.17;13.40;;;;;;;;;;5051763;28;20024;-74
2022/08/19 13:57:31;;;;;;;20.10;14.93;;;;;;;;;;5053204;28;20025;-73
2022/08/19 13:59:58;;;;;;;23.35;15.77;;;;;;;;;;5050739;28;20035;-73
2022/08/19 14:02:24;;;;;;;25.00;16.70;;;;;;;;;;5052716;28;20061;-73
2022/08/19 14:04:50;;;;;;;25.05;17.42;;;;;;;;;;5052704;28;20021;-73
2022/08/19 14:07:16;;;;;;;25.17;17.00;;;;;;;;;;5053178;28;20355;-74
2022/08/19 14:09:42;;;;;;;22.02;15.02;;;;;;;;;;5055558;28;20076;-73
2022/08/19 14:12:08;;;;;;;22.45;17.20;;;;;;;;;;5056825;28;20075;-74
2022/08/19 14:14:40;;;;;;;21.30;15.75;;;;;;;;;;5055846;28;20081;-73
2022/08/19 14:17:07;;;;;;;28.98;17.20;;;;;;;;;;5068052;28;20048;-72
2022/08/19 14:19:33;;;;;;;20.17;14.70;;;;;;;;;;5055053;28;20436;-73
2022/08/19 14:21:59;;;;;;;26.98;16.95;;;;;;;;;;5053264;28;20070;-73
2022/08/19 14:24:25;;;;;;;25.15;16.00;;;;;;;;;;5054493;28;20489;-71
2022/08/19 14:26:51;;;;;;;23.00;16.27;;;;;;;;;;5052382;28;20036;-72
2022/08/19 14:29:17;;;;;;;24.35;15.95;;;;;;;;;;5054204;28;20025;-73
2022/08/19 14:31:43;;;;;;;23.35;15.63;;;;;;;;;;5054749;28;20021;-70
2022/08/19 14:34:10;;;;;;;27.20;18.33;;;;;;;;;;5054164;28;20056;-71
2022/08/19 14:36:36;;;;;;;27.60;14.73;;;;;;;;;;5053453;28;20021;-73
2022/08/19 14:39:03;;;;;;;19.55;15.10;;;;;;;;;;5054189;28;20103;-73
2022/08/19 14:41:30;;;;;;;20.02;13.45;;;;;;;;;;5052463;28;20056;-73